logo dgac
Miércoles 19 de Junio del 2024
Buscar por aerodromo o helipuerto
Ingrese nombre de aeródromo, localidad o designador OACI:

Aeródromo: El Loa (PUB) (SCCF)

Ubicación: Calama, II Región, Chile (22º 30' 00'' S, 68º 54' 11'' W) Ver ubicación en el mapa

Pistas

Luces
Orientación Dimensión Pendiente Superficie Resistencia APCH THR RWY PAPI
10/28 3040 x 45 ASPH PCN 49 F/A/W/T
Horas de operación H24
Elevación 2326 m / 7631 ft
Otra Información Adm : D.G.A.C.
Uso : PUB
Ubicado : 6 km SE Calama
TEL : ARO +56953087107 +56953087940
email : aro.calama@dgac.gob.cl

Pendiente: RWY 28 -2.0%

Otra información ver AIP-Chile Volumen I AD 3.9-3.1-C
CCCM/FCCV Descargar CCCM/FCCV
andera de Chile
Mapa de El Loa (PUB) (SCCF)

Último METAR

METAR SCCF 191100Z 12014KT CAVOK 05/M14 Q1025

Último TAF

TAF SCCF 191007Z 1912/2012 11015KT CAVOK TX19/1918Z TN01/2010Z BECMG 1914/1915 27004KT BECMG 1916/1918 27020KT BECMG 1923/2001 27004KT BECMG 2002/2004 11020KT

Últimas fotos cámaras

Imagen aerodromo El Loa (PUB) (SCCF) Este tomada el 19-06-2024 11:26:38 Imagen aerodromo El Loa (PUB) (SCCF) Oeste tomada el 19-06-2024 11:26:35

Último NOTAM

C2675/24 NOTAMN Q)SCFZ/QMXHW/IV/M/A/000/999/2230S06854W005 A)SCCF B)2406171500 C)2406200359 E)TWY ALFA WIP THR10 A THR28,CTN